Delta Virtual Airport Information Service

Raleigh-Durham International Airport

ICAO: KRDU Country: United States
Latitude: 35.8776 Longitude: -78.7874
Latest Arrival : SWA2023 (D) (KBWI-KRDU) Latest Departure : DAL3038 (1B) (KRDU-KMCO)


WX CaptureLIVE
Data provided by noaa.gov | Fetched at 08:37:16

METAR : KRDU 301351Z 21016G28KT 8SM -RA BKN016 BKN035 BKN085 BKN250 19/18 A2952 RMK AO2 PK WND 20028/1348 RAB11 SLP992 BKN016 V SCT P0000 T01940178

TAF : KRDU 301140Z 3012/0112 20014G22KT 3SM -RA BR SCT005 OVC012 TEMPO 3013/3015 VRB35KT 2SM +SHRA BKN025 FM301500 21020G38KT P6SM VCSH BKN025 FM301800 24014G24KT P6SM BKN035 FM010000 25010G16KT P6SM BKN050 FM010600 27008KT P6SM BKN035


Runway Data for KRDU
Data provided by openaviationdata.com

Runway ID Mag Var Hdg Length Elevation Surface ILS Freq ILS Id ILS Slope
05L -8 53° 10001 ft 435 ft Concrete 109.1 IGKK 3
05R -8 53° 7501 ft 435 ft Asphalt 109.5 IRDU 3
14 -8 143° 3570 ft 435 ft Asphalt -- -- --
23L -8 233° 7501 ft 435 ft Asphalt 108.5 ILEI 3
23R -8 233° 10001 ft 435 ft Concrete 111.7 IDMP 3
32 -8 323° 3570 ft 435 ft Asphalt -- -- --

Raleigh-Durham International Airport, United States
Use only for reference purposes



Not for navigational purposes.